Blues — ZGAQ9 — position and weather

sailwx.info

Track history (hours):
 
Tides and Currents Weather Stations Pressure Air Temp Water Temp Dewpoint Dewpoint Depression Visibility Wind Speed Wind Dir Waves Ship Positions

Blues

Last reported at 2016-Apr-28 00:25 UTC. Time now 2016-Apr-30 20:40 UTC.
Position N 37°54' W 024°01'.

Type: Sailing vessel. MMSI: 319031700.

Date/timePositionNaut miles runAvg speedWind from/ knotsBaromVisibWave heightAir tempDewpointWater temp
2016-Apr-28 00:25N 37°54' W 024°01'9 9.8
2016-Apr-27 23:32N 37°51' W 024°12'1010.0
2016-Apr-27 22:33N 37°49' W 024°24'10 9.8
2016-Apr-27 21:33N 37°46' W 024°36'1010.4
2016-Apr-27 20:33N 37°44' W 024°49'1110.9
2016-Apr-27 19:33N 37°41' W 025°02'8 7.7
2016-Apr-27 18:33N 37°41' W 025°12'9 9.3
2016-Apr-27 17:33N 37°42' W 025°23'9 9.5
2016-Apr-27 16:33N 37°43' W 025°35'4 3.8
2016-Apr-27 15:33N 37°44' W 025°40'0 0.0
2016-Apr-27 14:33N 37°44' W 025°40'0 0.0
2016-Apr-27 13:33N 37°44' W 025°40'0 0.0
2016-Apr-27 12:33N 37°44' W 025°40'0 0.0
2016-Apr-27 11:33N 37°44' W 025°40'0 0.0
2016-Apr-27 10:33N 37°44' W 025°40'0 0.0
2016-Apr-27 09:33N 37°44' W 025°40'  
2016-Apr-24 14:20N 37°44' W 025°40'0 0.0
2016-Apr-24 13:32N 37°44' W 025°40'0 0.1
2016-Apr-24 12:33N 37°44' W 025°40'9 9.3
2016-Apr-24 11:33N 37°38' W 025°49'1110.8
2016-Apr-24 10:33N 37°30' W 025°58'1010.4
2016-Apr-24 09:33N 37°23' W 026°08'1010.0
2016-Apr-24 08:33N 37°16' W 026°17'1010.0
2016-Apr-24 07:33N 37°10' W 026°26'1010.0
2016-Apr-24 06:33N 37°03' W 026°36'  
Track history (hours):
 
Tides and Currents Weather Stations Pressure Air Temp Water Temp Dewpoint Dewpoint Depression Visibility Wind Speed Wind Dir Waves Ship Positions

Blues

Last reported at 2016-Apr-28 00:25 UTC. Time now 2016-Apr-30 20:40 UTC.
Position N 37°54' W 024°01'.

Type: Sailing vessel. MMSI: 319031700.

Date/timePositionNaut miles runAvg speedWind from/ knotsBaromVisibWave heightAir tempDewpointWater temp
2016-Apr-28 00:25N 37°54' W 024°01'9 9.8
2016-Apr-27 23:32N 37°51' W 024°12'1010.0
2016-Apr-27 22:33N 37°49' W 024°24'10 9.8
2016-Apr-27 21:33N 37°46' W 024°36'1010.4
2016-Apr-27 20:33N 37°44' W 024°49'1110.9
2016-Apr-27 19:33N 37°41' W 025°02'8 7.7
2016-Apr-27 18:33N 37°41' W 025°12'9 9.3
2016-Apr-27 17:33N 37°42' W 025°23'9 9.5
2016-Apr-27 16:33N 37°43' W 025°35'4 3.8
2016-Apr-27 15:33N 37°44' W 025°40'0 0.0
2016-Apr-27 14:33N 37°44' W 025°40'0 0.0
2016-Apr-27 13:33N 37°44' W 025°40'0 0.0
2016-Apr-27 12:33N 37°44' W 025°40'0 0.0
2016-Apr-27 11:33N 37°44' W 025°40'0 0.0
2016-Apr-27 10:33N 37°44' W 025°40'0 0.0
2016-Apr-27 09:33N 37°44' W 025°40'  
2016-Apr-24 14:20N 37°44' W 025°40'0 0.0
2016-Apr-24 13:32N 37°44' W 025°40'0 0.1
2016-Apr-24 12:33N 37°44' W 025°40'9 9.3
2016-Apr-24 11:33N 37°38' W 025°49'1110.8
2016-Apr-24 10:33N 37°30' W 025°58'1010.4
2016-Apr-24 09:33N 37°23' W 026°08'1010.0
2016-Apr-24 08:33N 37°16' W 026°17'1010.0
2016-Apr-24 07:33N 37°10' W 026°26'1010.0
2016-Apr-24 06:33N 37°03' W 026°36'  

Dump ship's entire track history